Time;durP1;ratioP1;P1;durP2;ratioP2;P2;SDS_P1;SDS_P2;PMS_P1;PMS_P2;Temp;Humidity;BMP_temperature;BMP_pressure;BME280_temperature;BME280_humidity;BME280_pressure;Samples;Min_cycle;Max_cycle;Signal;HPM_P1;HPM_P2
2021/07/08 00:01:14;;;;;;;1.40;1.00;;;17.90;98.00;;;;;;5073373;28;20486;-70
2021/07/08 00:03:41;;;;;;;1.20;1.10;;;17.90;98.00;;;;;;5073322;28;20538;-69
2021/07/08 00:06:10;;;;;;;1.20;1.20;;;18.00;98.00;;;;;;5073483;28;20460;-70
2021/07/08 00:08:37;;;;;;;1.70;1.13;;;18.00;98.00;;;;;;5055585;28;20484;-69
2021/07/08 00:11:05;;;;;;;1.37;1.20;;;17.90;98.00;;;;;;5073477;28;20465;-70
2021/07/08 00:13:33;;;;;;;1.30;1.10;;;18.00;98.00;;;;;;5073274;28;20473;-70
2021/07/08 00:16:00;;;;;;;1.30;1.10;;;18.00;98.00;;;;;;5072816;28;20456;-69
2021/07/08 00:18:30;;;;;;;1.40;1.30;;;18.00;98.00;;;;;;5073213;28;20859;-70
2021/07/08 00:20:57;;;;;;;1.30;1.10;;;18.00;98.00;;;;;;5072938;28;20542;-69
2021/07/08 00:23:25;;;;;;;1.50;1.10;;;18.00;98.00;;;;;;5072904;28;20998;-69
2021/07/08 00:25:55;;;;;;;1.30;1.20;;;18.00;98.00;;;;;;5073013;28;20506;-70
2021/07/08 00:28:22;;;;;;;1.20;1.10;;;18.00;98.00;;;;;;5072950;28;20582;-69
2021/07/08 00:30:51;;;;;;;1.37;1.30;;;18.00;98.00;;;;;;5072954;28;20862;-69
2021/07/08 00:33:21;;;;;;;1.20;1.03;;;18.00;98.00;;;;;;5072965;28;20457;-69
2021/07/08 00:35:50;;;;;;;1.20;1.10;;;18.00;98.00;;;;;;5072814;28;21017;-69
2021/07/08 00:38:17;;;;;;;1.30;1.10;;;17.90;98.00;;;;;;5072778;28;20518;-70
2021/07/08 00:40:45;;;;;;;1.20;1.10;;;17.90;98.00;;;;;;5072940;28;20511;-69
2021/07/08 00:43:12;;;;;;;1.20;1.10;;;18.00;98.00;;;;;;5072518;28;20485;-69
2021/07/08 00:45:39;;;;;;;1.30;1.20;;;18.00;98.00;;;;;;5072706;28;20456;-69
2021/07/08 00:48:09;;;;;;;1.20;1.10;;;18.20;98.00;;;;;;5072453;28;20468;-68
2021/07/08 00:50:42;;;;;;;1.10;1.00;;;18.10;98.00;;;;;;5072185;28;20452;-69
2021/07/08 00:53:11;;;;;;;1.20;1.10;;;18.20;98.00;;;;;;5071222;28;20543;-71
2021/07/08 00:55:38;;;;;;;1.30;1.20;;;18.20;98.00;;;;;;5072113;28;20511;-69
2021/07/08 00:58:07;;;;;;;1.40;1.30;;;18.00;98.00;;;;;;5072381;28;20959;-70
2021/07/08 01:00:36;;;;;;;1.20;1.20;;;18.00;98.00;;;;;;5072371;28;20870;-68
2021/07/08 01:03:08;;;;;;;1.20;1.20;;;17.80;98.00;;;;;;5070875;28;20493;-70
2021/07/08 01:05:38;;;;;;;1.20;1.20;;;17.70;98.00;;;;;;5072192;28;20453;-69
2021/07/08 01:08:06;;;;;;;1.23;1.10;;;17.60;98.00;;;;;;5072206;28;21029;-70
2021/07/08 01:10:34;;;;;;;1.20;1.10;;;17.70;98.00;;;;;;5072012;28;20467;-69
2021/07/08 01:13:02;;;;;;;1.60;1.10;;;17.80;98.00;;;;;;5072021;28;20457;-70
2021/07/08 01:15:30;;;;;;;1.20;1.20;;;17.90;98.00;;;;;;5071969;28;20510;-70
2021/07/08 01:17:57;;;;;;;1.30;1.20;;;18.00;98.00;;;;;;5072043;28;20449;-68
2021/07/08 01:20:26;;;;;;;1.20;1.20;;;18.00;98.00;;;;;;5071727;28;20473;-70
2021/07/08 01:23:02;;;;;;;1.20;1.00;;;17.90;98.00;;;;;;5071850;28;21036;-70
2021/07/08 01:25:31;;;;;;;1.20;1.03;;;18.00;98.00;;;;;;5071972;28;20448;-68
2021/07/08 01:28:02;;;;;;;1.17;1.00;;;17.90;98.00;;;;;;5071870;28;20513;-70
2021/07/08 01:30:30;;;;;;;1.20;1.10;;;17.90;98.00;;;;;;5071104;28;20514;-71
2021/07/08 01:33:00;;;;;;;1.53;1.20;;;18.00;98.00;;;;;;5071868;28;20453;-69
2021/07/08 01:35:27;;;;;;;1.20;1.00;;;17.80;98.00;;;;;;5071809;28;20457;-69
2021/07/08 01:37:56;;;;;;;1.13;1.10;;;17.80;98.00;;;;;;5071888;28;20530;-69
2021/07/08 01:40:23;;;;;;;1.20;1.20;;;17.70;98.00;;;;;;5071771;28;20456;-69
2021/07/08 01:42:50;;;;;;;1.30;1.20;;;17.50;98.00;;;;;;5071893;28;20481;-69
2021/07/08 01:45:18;;;;;;;1.30;1.27;;;17.50;98.00;;;;;;5071794;28;20548;-69
2021/07/08 01:47:46;;;;;;;1.10;1.00;;;17.40;98.00;;;;;;5071717;28;20455;-70
2021/07/08 01:50:17;;;;;;;1.30;1.20;;;17.40;98.00;;;;;;5071480;28;20453;-69
2021/07/08 01:52:45;;;;;;;1.10;1.10;;;17.40;98.00;;;;;;5071737;28;20465;-69
2021/07/08 01:55:14;;;;;;;1.20;1.00;;;17.50;98.00;;;;;;5071766;28;20521;-69
2021/07/08 01:57:43;;;;;;;1.20;1.17;;;17.60;98.00;;;;;;5071691;28;20465;-70
2021/07/08 02:00:13;;;;;;;1.30;1.20;;;17.70;98.00;;;;;;5071801;28;20514;-69
2021/07/08 02:02:40;;;;;;;1.10;1.00;;;17.70;98.00;;;;;;5071448;28;20465;-69
2021/07/08 02:05:13;;;;;;;1.10;1.00;;;17.60;98.00;;;;;;5071638;28;21019;-68
2021/07/08 02:07:40;;;;;;;1.20;1.10;;;17.50;98.00;;;;;;5054270;28;20452;-68
2021/07/08 02:10:08;;;;;;;1.17;1.17;;;17.40;98.00;;;;;;5071490;28;20513;-69
2021/07/08 02:12:37;;;;;;;1.10;1.00;;;17.50;98.00;;;;;;5071437;28;20484;-69
2021/07/08 02:15:06;;;;;;;1.30;1.20;;;17.40;98.00;;;;;;5071349;28;20472;-68
2021/07/08 02:17:36;;;;;;;1.20;1.10;;;17.40;98.00;;;;;;5071383;28;20529;-69
2021/07/08 02:20:05;;;;;;;1.10;1.10;;;17.40;98.00;;;;;;5071229;28;20555;-68
2021/07/08 02:22:32;;;;;;;1.30;1.17;;;17.50;98.00;;;;;;5071282;28;20456;-70
2021/07/08 02:25:00;;;;;;;1.10;1.10;;;17.50;98.00;;;;;;5071116;28;20493;-69
2021/07/08 02:27:28;;;;;;;1.43;1.20;;;17.40;98.00;;;;;;5071570;28;20478;-69
2021/07/08 02:29:56;;;;;;;1.47;1.40;;;17.30;98.00;;;;;;5071197;28;20490;-70
2021/07/08 02:32:25;;;;;;;1.20;1.20;;;17.30;98.00;;;;;;5071292;28;21010;-69
2021/07/08 02:34:52;;;;;;;1.10;1.10;;;17.20;98.00;;;;;;5068064;28;20955;-69
2021/07/08 02:37:19;;;;;;;1.30;1.10;;;17.20;98.00;;;;;;5071307;28;20455;-68
2021/07/08 02:39:47;;;;;;;1.40;1.40;;;17.20;98.00;;;;;;5071195;28;20460;-69
2021/07/08 02:42:14;;;;;;;1.40;1.20;;;17.30;98.00;;;;;;5071971;28;20465;-70
2021/07/08 02:44:42;;;;;;;1.23;1.10;;;17.40;98.00;;;;;;5073531;28;20480;-69
2021/07/08 02:47:10;;;;;;;1.60;1.20;;;17.30;98.00;;;;;;5057289;28;20586;-69
2021/07/08 02:49:37;;;;;;;2.27;1.20;;;17.40;98.00;;;;;;5074642;28;20931;-70
2021/07/08 02:52:06;;;;;;;1.33;1.30;;;17.50;98.00;;;;;;5074830;28;20472;-69
2021/07/08 02:54:33;;;;;;;1.20;1.20;;;17.60;98.00;;;;;;5074744;28;20506;-70
2021/07/08 02:57:00;;;;;;;1.10;1.10;;;17.50;98.00;;;;;;5074837;28;20456;-70
2021/07/08 02:59:28;;;;;;;1.43;1.37;;;17.40;98.00;;;;;;5074551;28;20923;-69
2021/07/08 03:01:55;;;;;;;1.50;1.10;;;17.50;98.00;;;;;;5073512;28;20458;-69
2021/07/08 03:04:25;;;;;;;1.97;1.10;;;17.40;98.00;;;;;;5074493;28;21071;-70
2021/07/08 03:06:52;;;;;;;1.50;1.30;;;17.30;98.00;;;;;;5074695;28;20449;-69
2021/07/08 03:09:19;;;;;;;1.40;1.10;;;17.30;98.00;;;;;;5074408;28;20473;-70
2021/07/08 03:11:46;;;;;;;1.10;1.00;;;17.20;98.00;;;;;;5074646;28;20469;-70
2021/07/08 03:14:13;;;;;;;1.10;1.10;;;17.30;98.00;;;;;;5074419;28;20456;-70
2021/07/08 03:16:40;;;;;;;1.30;1.20;;;17.40;98.00;;;;;;5073218;28;20529;-69
2021/07/08 03:19:07;;;;;;;1.63;1.20;;;17.50;98.00;;;;;;5074617;28;20465;-69
2021/07/08 03:21:37;;;;;;;1.30;1.10;;;17.60;98.00;;;;;;5074229;28;20514;-71
2021/07/08 03:24:06;;;;;;;1.20;1.20;;;17.60;98.00;;;;;;5074152;28;20554;-69
2021/07/08 03:26:33;;;;;;;1.10;1.00;;;17.80;98.00;;;;;;5074168;28;20932;-69
2021/07/08 03:29:00;;;;;;;1.30;1.20;;;17.60;98.00;;;;;;5073971;28;20518;-69
2021/07/08 03:31:29;;;;;;;1.20;1.20;;;17.50;98.00;;;;;;5074346;28;20597;-68
2021/07/08 03:33:56;;;;;;;1.20;1.20;;;17.50;98.00;;;;;;5073894;28;20465;-69
2021/07/08 03:36:23;;;;;;;1.17;1.10;;;17.60;98.00;;;;;;5073528;28;20464;-68
2021/07/08 03:38:51;;;;;;;1.10;1.10;;;17.50;98.00;;;;;;5073854;28;20469;-70
2021/07/08 03:41:18;;;;;;;1.40;1.10;;;17.50;98.00;;;;;;5073760;28;20457;-69
2021/07/08 03:43:46;;;;;;;1.33;1.27;;;17.60;98.00;;;;;;5073670;28;20492;-68
2021/07/08 03:46:13;;;;;;;1.10;1.00;;;17.60;98.00;;;;;;5073797;28;20461;-69
2021/07/08 03:48:40;;;;;;;1.20;1.20;;;17.60;98.00;;;;;;5072616;28;20510;-69
2021/07/08 03:51:07;;;;;;;1.67;1.30;;;17.60;98.00;;;;;;5073683;28;20464;-69
2021/07/08 03:53:36;;;;;;;2.27;1.10;;;17.60;98.00;;;;;;5072715;28;20457;-69
2021/07/08 03:56:05;;;;;;;1.10;1.10;;;17.40;98.00;;;;;;5073602;28;20612;-69
2021/07/08 03:58:33;;;;;;;1.30;1.20;;;17.30;98.00;;;;;;5073557;28;20519;-69
2021/07/08 04:01:00;;;;;;;1.70;1.30;;;17.30;98.00;;;;;;5073376;28;20971;-68
2021/07/08 04:03:27;;;;;;;1.20;1.10;;;17.20;98.00;;;;;;5072114;28;20479;-69
2021/07/08 04:05:56;;;;;;;1.47;1.43;;;17.20;98.00;;;;;;5072404;28;20472;-69
2021/07/08 04:08:24;;;;;;;1.60;1.27;;;17.10;98.00;;;;;;5073202;28;20515;-69
2021/07/08 04:10:52;;;;;;;1.30;1.20;;;17.20;98.00;;;;;;5073502;28;20465;-69
2021/07/08 04:13:21;;;;;;;1.20;1.10;;;17.20;98.00;;;;;;5072104;28;20468;-69
2021/07/08 04:15:50;;;;;;;1.30;1.20;;;17.20;98.00;;;;;;5073232;28;20460;-70
2021/07/08 04:18:20;;;;;;;1.10;1.03;;;17.20;98.00;;;;;;5071824;28;20464;-69
2021/07/08 04:20:48;;;;;;;1.10;1.00;;;17.20;98.00;;;;;;5073011;28;20476;-70
2021/07/08 04:23:15;;;;;;;1.20;1.20;;;17.20;98.00;;;;;;5072802;28;20464;-69
2021/07/08 04:25:43;;;;;;;1.33;1.23;;;17.20;98.00;;;;;;5073121;28;20499;-70
2021/07/08 04:28:11;;;;;;;1.20;1.20;;;17.30;98.00;;;;;;5072999;28;20465;-69
2021/07/08 04:30:40;;;;;;;1.10;1.07;;;17.30;98.00;;;;;;5072985;28;20997;-68
2021/07/08 04:33:09;;;;;;;1.10;1.10;;;17.30;98.00;;;;;;5072844;28;20468;-70
2021/07/08 04:35:38;;;;;;;1.33;1.23;;;17.30;98.00;;;;;;5072842;28;20865;-70
2021/07/08 04:38:07;;;;;;;1.10;1.00;;;17.40;98.00;;;;;;5073269;28;20457;-70
2021/07/08 04:40:34;;;;;;;1.40;1.30;;;17.60;98.00;;;;;;5072843;28;20465;-69
2021/07/08 04:43:04;;;;;;;1.30;1.10;;;17.70;98.00;;;;;;5072695;28;20530;-71
2021/07/08 04:45:32;;;;;;;1.67;1.43;;;17.80;98.00;;;;;;5072495;28;20488;-69
2021/07/08 04:48:00;;;;;;;1.40;1.30;;;17.90;98.00;;;;;;5072319;28;20522;-69
2021/07/08 04:50:27;;;;;;;1.30;1.10;;;18.00;98.00;;;;;;5072510;28;20935;-69
2021/07/08 04:52:55;;;;;;;1.10;1.00;;;18.00;98.00;;;;;;5072381;28;20521;-69
2021/07/08 04:55:24;;;;;;;1.10;1.00;;;18.00;98.00;;;;;;5071833;28;20499;-69
2021/07/08 04:57:52;;;;;;;1.13;1.10;;;18.20;98.00;;;;;;5071384;28;20471;-70
2021/07/08 05:00:21;;;;;;;1.40;1.10;;;18.20;98.00;;;;;;5072205;28;20457;-70
2021/07/08 05:02:49;;;;;;;1.10;1.00;;;18.20;98.00;;;;;;5072145;28;20461;-71
2021/07/08 05:05:18;;;;;;;1.10;1.00;;;18.10;98.00;;;;;;5071837;28;20520;-70
2021/07/08 05:07:46;;;;;;;1.30;1.20;;;18.00;98.00;;;;;;5072089;28;21001;-70
2021/07/08 05:10:15;;;;;;;1.70;1.10;;;18.00;98.00;;;;;;5072194;28;20490;-70
2021/07/08 05:12:42;;;;;;;1.33;1.27;;;18.00;98.00;;;;;;5071930;28;20518;-70
2021/07/08 05:15:12;;;;;;;1.40;1.20;;;17.90;98.00;;;;;;5071731;28;20546;-71
2021/07/08 05:17:39;;;;;;;1.13;1.03;;;17.90;98.00;;;;;;5072013;28;20967;-70
2021/07/08 05:20:08;;;;;;;1.27;1.17;;;18.00;98.00;;;;;;5071447;28;20457;-70
2021/07/08 05:22:38;;;;;;;1.30;1.23;;;18.10;98.00;;;;;;5071915;28;20513;-70
2021/07/08 05:25:07;;;;;;;1.27;1.23;;;18.10;98.00;;;;;;5071836;28;20489;-70
2021/07/08 05:27:34;;;;;;;1.57;1.20;;;18.20;98.00;;;;;;5071827;28;20518;-70
2021/07/08 05:30:02;;;;;;;1.40;1.10;;;18.20;98.00;;;;;;5071666;28;20514;-70
2021/07/08 05:32:30;;;;;;;1.30;1.10;;;18.10;98.00;;;;;;5071932;28;20514;-70
2021/07/08 05:34:59;;;;;;;1.40;1.20;;;18.00;98.00;;;;;;5071656;28;20453;-69
2021/07/08 05:37:26;;;;;;;1.53;1.13;;;18.20;98.00;;;;;;5071062;28;20500;-69
2021/07/08 05:39:55;;;;;;;1.20;1.10;;;18.20;98.00;;;;;;5071013;28;20522;-70
2021/07/08 05:42:22;;;;;;;1.40;1.20;;;18.20;98.00;;;;;;5069786;28;20852;-69
2021/07/08 05:44:49;;;;;;;1.30;1.07;;;18.30;98.00;;;;;;5071134;28;20546;-70
2021/07/08 05:47:16;;;;;;;1.27;1.13;;;18.40;98.00;;;;;;5070589;28;20479;-69
2021/07/08 05:49:43;;;;;;;1.30;1.10;;;18.40;98.00;;;;;;5071808;28;20461;-71
2021/07/08 05:52:10;;;;;;;1.40;1.30;;;18.30;98.00;;;;;;5070497;28;20496;-70
2021/07/08 05:54:38;;;;;;;1.20;1.20;;;18.30;98.00;;;;;;5071800;28;20456;-70
2021/07/08 05:57:07;;;;;;;1.70;1.40;;;18.30;98.00;;;;;;5054287;28;20509;-69
2021/07/08 05:59:34;;;;;;;1.50;1.20;;;18.30;98.00;;;;;;5071883;28;20456;-70
2021/07/08 06:02:01;;;;;;;1.30;1.27;;;18.30;98.00;;;;;;5072005;28;20465;-70
2021/07/08 06:04:29;;;;;;;1.30;1.20;;;18.30;98.00;;;;;;5071550;28;20489;-69
2021/07/08 06:06:56;;;;;;;1.10;1.10;;;18.30;98.00;;;;;;5071152;28;20834;-69
2021/07/08 06:09:24;;;;;;;1.20;1.10;;;18.30;98.00;;;;;;5071481;28;20866;-69
2021/07/08 06:11:51;;;;;;;1.20;1.10;;;18.30;98.00;;;;;;5086898;28;20523;-71
2021/07/08 06:14:21;;;;;;;1.20;1.20;;;18.40;98.00;;;;;;5107538;28;20459;-68
2021/07/08 06:16:48;;;;;;;1.53;1.40;;;18.60;98.00;;;;;;5108095;28;20560;-69
2021/07/08 06:19:15;;;;;;;1.60;1.23;;;18.80;98.00;;;;;;5094554;28;20459;-70
2021/07/08 06:21:42;;;;;;;1.83;1.40;;;18.90;98.00;;;;;;5092806;28;20955;-70
2021/07/08 06:24:09;;;;;;;1.40;1.30;;;18.80;98.00;;;;;;5095232;28;20985;-69
2021/07/08 06:26:36;;;;;;;1.20;1.10;;;18.80;98.00;;;;;;5095332;28;20471;-70
2021/07/08 06:29:03;;;;;;;1.20;1.20;;;18.80;98.00;;;;;;5095230;28;20512;-70
2021/07/08 06:31:32;;;;;;;1.10;1.10;;;18.80;98.00;;;;;;5095145;28;20876;-71
2021/07/08 06:33:59;;;;;;;1.80;1.27;;;18.80;98.00;;;;;;5095384;28;20460;-70
2021/07/08 06:36:26;;;;;;;1.73;1.50;;;18.80;98.00;;;;;;5094049;28;20456;-71
2021/07/08 06:38:53;;;;;;;1.50;1.30;;;18.80;98.00;;;;;;5095179;28;20464;-70
2021/07/08 06:41:20;;;;;;;1.67;1.40;;;18.90;98.00;;;;;;5095071;28;20830;-70
2021/07/08 06:43:47;;;;;;;1.53;1.20;;;18.90;98.00;;;;;;5095200;28;20962;-70
2021/07/08 06:46:17;;;;;;;1.13;1.10;;;19.00;98.00;;;;;;5094936;28;20909;-70
2021/07/08 06:48:46;;;;;;;1.20;1.10;;;19.10;98.00;;;;;;5095153;28;20973;-70
2021/07/08 06:51:30;;;;;;;1.17;1.13;;;19.10;98.00;;;;;;5094964;28;20459;-70
2021/07/08 06:53:58;;;;;;;2.53;1.20;;;19.20;98.00;;;;;;5092803;28;20455;-70
2021/07/08 06:56:26;;;;;;;1.20;1.20;;;19.30;98.00;;;;;;5094890;28;20455;-71
2021/07/08 06:58:53;;;;;;;1.70;1.27;;;19.40;98.00;;;;;;5094990;28;20467;-69
2021/07/08 07:01:20;;;;;;;1.40;1.23;;;19.40;98.00;;;;;;5094904;28;20509;-69
2021/07/08 07:03:48;;;;;;;1.50;1.27;;;19.30;98.00;;;;;;5095009;28;20452;-70
2021/07/08 07:06:15;;;;;;;1.20;1.20;;;19.40;98.00;;;;;;5094742;28;20488;-70
2021/07/08 07:08:43;;;;;;;1.30;1.20;;;19.50;98.00;;;;;;5095060;28;20460;-69
2021/07/08 07:11:11;;;;;;;1.40;1.27;;;19.50;98.00;;;;;;5094944;28;20456;-71
2021/07/08 07:13:38;;;;;;;1.20;1.20;;;19.40;98.00;;;;;;5094822;28;20459;-70
2021/07/08 07:16:05;;;;;;;1.20;1.10;;;19.40;98.00;;;;;;5094783;28;20520;-70
2021/07/08 07:18:33;;;;;;;1.43;1.27;;;19.30;98.00;;;;;;5094989;28;20529;-70
2021/07/08 07:21:01;;;;;;;1.20;1.10;;;19.20;98.00;;;;;;5094155;28;20525;-70
2021/07/08 07:23:29;;;;;;;1.47;1.27;;;19.40;98.00;;;;;;5093398;28;20448;-70
2021/07/08 07:25:56;;;;;;;1.50;1.23;;;19.40;98.00;;;;;;5094267;28;20484;-69
2021/07/08 07:28:23;;;;;;;1.53;1.53;;;19.40;98.00;;;;;;5093297;28;20460;-70
2021/07/08 07:30:51;;;;;;;1.20;1.17;;;19.40;98.00;;;;;;5094239;28;20468;-69
2021/07/08 07:33:18;;;;;;;1.10;1.00;;;19.30;98.00;;;;;;5094178;28;20570;-69
2021/07/08 07:35:45;;;;;;;1.40;1.30;;;19.20;98.00;;;;;;5094104;28;20460;-68
2021/07/08 07:38:13;;;;;;;1.40;1.30;;;19.20;98.00;;;;;;5094442;28;20509;-70
2021/07/08 07:40:41;;;;;;;1.73;1.40;;;19.30;98.00;;;;;;5094118;28;20525;-68
2021/07/08 07:43:08;;;;;;;1.20;1.20;;;19.40;98.00;;;;;;5093810;28;20459;-69
2021/07/08 07:45:35;;;;;;;1.30;1.10;;;19.40;98.00;;;;;;5093769;28;20484;-69
2021/07/08 07:48:04;;;;;;;1.10;1.10;;;19.50;98.00;;;;;;5093969;28;20464;-68
2021/07/08 07:50:32;;;;;;;1.63;1.10;;;19.50;98.00;;;;;;5093859;28;20463;-70
2021/07/08 07:53:01;;;;;;;1.20;1.20;;;19.50;98.00;;;;;;5092592;28;20462;-67
2021/07/08 07:55:30;;;;;;;1.20;1.20;;;19.50;98.00;;;;;;5093847;28;20508;-68
2021/07/08 07:57:58;;;;;;;1.63;1.30;;;19.50;98.00;;;;;;5093711;28;20959;-69
2021/07/08 08:00:25;;;;;;;1.50;1.10;;;19.60;98.00;;;;;;5093589;28;20509;-68
2021/07/08 08:02:53;;;;;;;1.40;1.23;;;19.70;98.00;;;;;;5093725;28;20456;-69
2021/07/08 08:05:36;;;;;;;1.63;1.30;;;19.70;98.00;;;;;;5093376;28;20679;-69
2021/07/08 08:10:51;;;;;;;1.20;1.00;;;19.70;98.00;;;;;;5093461;28;20462;-69
2021/07/08 08:13:19;;;;;;;2.93;1.30;;;19.70;98.00;;;;;;5093515;28;20489;-68
2021/07/08 08:15:46;;;;;;;1.47;1.20;;;19.80;98.00;;;;;;5093513;28;20522;-69
2021/07/08 08:18:13;;;;;;;1.77;1.10;;;19.80;98.00;;;;;;5093425;28;20460;-70
2021/07/08 08:20:40;;;;;;;1.40;1.30;;;19.70;98.00;;;;;;5093140;28;20521;-68
2021/07/08 08:23:07;;;;;;;1.20;1.10;;;19.70;98.00;;;;;;5093287;28;20516;-69
2021/07/08 08:25:35;;;;;;;1.20;1.20;;;19.60;98.00;;;;;;5092825;28;20574;-69
2021/07/08 08:28:05;;;;;;;1.20;1.10;;;19.70;98.00;;;;;;5093355;28;20512;-69
2021/07/08 08:30:32;;;;;;;1.70;1.60;;;19.70;98.00;;;;;;5075289;28;20464;-68
2021/07/08 08:32:59;;;;;;;2.43;1.37;;;19.70;98.00;;;;;;5093347;28;20523;-69
2021/07/08 08:35:26;;;;;;;1.20;1.20;;;19.60;98.00;;;;;;5093089;28;20456;-68
2021/07/08 08:37:53;;;;;;;1.20;1.20;;;19.70;98.00;;;;;;5093382;28;20520;-70
2021/07/08 08:40:22;;;;;;;1.30;1.20;;;19.80;98.00;;;;;;5092689;28;20463;-68
2021/07/08 08:42:50;;;;;;;1.40;1.30;;;20.00;98.00;;;;;;5093137;28;20962;-69
2021/07/08 08:45:19;;;;;;;1.30;1.10;;;20.10;98.00;;;;;;5092761;28;20480;-68
2021/07/08 08:47:54;;;;;;;1.93;1.30;;;20.30;98.00;;;;;;5092849;28;20827;-69
2021/07/08 08:50:21;;;;;;;1.37;1.20;;;20.30;98.00;;;;;;5092772;28;20921;-68
2021/07/08 08:52:49;;;;;;;1.40;1.30;;;20.40;98.00;;;;;;5092504;28;20452;-67
2021/07/08 08:55:16;;;;;;;1.60;1.10;;;20.60;98.00;;;;;;5092502;28;20448;-69
2021/07/08 08:57:45;;;;;;;1.20;1.10;;;20.80;98.00;;;;;;5092159;28;21012;-68
2021/07/08 09:00:39;;;;;;;1.20;1.10;;;20.90;98.00;;;;;;5092516;28;20459;-68
2021/07/08 09:03:07;;;;;;;1.40;1.20;;;21.00;98.00;;;;;;5092371;28;20495;-69
2021/07/08 09:05:36;;;;;;;1.20;1.10;;;21.20;98.00;;;;;;5092203;28;20491;-69
2021/07/08 09:08:15;;;;;;;1.67;1.23;;;21.20;98.00;;;;;;5092492;28;20802;-70
2021/07/08 09:10:43;;;;;;;1.70;1.37;;;21.20;98.00;;;;;;5092196;28;20446;-68
2021/07/08 09:13:10;;;;;;;1.60;1.40;;;21.30;98.00;;;;;;5092360;28;20541;-69
2021/07/08 09:15:39;;;;;;;1.33;1.20;;;21.40;98.00;;;;;;5092286;28;20456;-68
2021/07/08 09:18:07;;;;;;;1.30;1.27;;;21.40;98.00;;;;;;5092313;28;21006;-69
2021/07/08 09:20:36;;;;;;;1.20;1.20;;;21.40;98.00;;;;;;5091923;28;20470;-68
2021/07/08 09:23:13;;;;;;;1.30;1.13;;;21.50;98.00;;;;;;5092185;28;20543;-68
2021/07/08 09:25:40;;;;;;;1.20;1.10;;;21.50;98.00;;;;;;5091972;28;21063;-68
2021/07/08 09:28:14;;;;;;;1.20;1.20;;;21.60;98.00;;;;;;5092246;28;20533;-69
2021/07/08 09:30:43;;;;;;;1.50;1.17;;;21.70;98.00;;;;;;5091986;28;20955;-69
2021/07/08 09:33:35;;;;;;;1.20;1.10;;;21.80;98.00;;;;;;5092253;28;20455;-68
2021/07/08 09:36:11;;;;;;;1.20;1.10;;;21.90;98.00;;;;;;5092056;28;20451;-69
2021/07/08 09:38:40;;;;;;;1.50;1.40;;;22.00;98.00;;;;;;5092068;28;20463;-68
2021/07/08 09:41:10;;;;;;;1.20;1.20;;;22.10;98.00;;;;;;5092089;28;21151;-69
2021/07/08 09:43:39;;;;;;;1.20;1.20;;;22.10;98.00;;;;;;5092077;28;20871;-70
2021/07/08 09:46:08;;;;;;;1.77;1.30;;;22.10;98.00;;;;;;5091862;28;20487;-69
2021/07/08 09:48:36;;;;;;;1.40;1.27;;;22.00;98.00;;;;;;5092086;28;20521;-70
2021/07/08 09:51:03;;;;;;;2.17;1.60;;;21.90;98.00;;;;;;5091922;28;20467;-69
2021/07/08 09:53:31;;;;;;;1.20;1.10;;;22.00;98.00;;;;;;5091370;28;20452;-67
2021/07/08 09:56:03;;;;;;;1.50;1.43;;;22.00;98.00;;;;;;5092085;28;20448;-68
2021/07/08 09:58:33;;;;;;;1.20;1.10;;;22.00;98.00;;;;;;5092020;28;20547;-68
2021/07/08 10:01:13;;;;;;;2.27;1.93;;;21.90;98.00;;;;;;5091723;28;20460;-70
2021/07/08 10:03:41;;;;;;;1.40;1.10;;;21.90;98.00;;;;;;5091835;28;20463;-69
2021/07/08 10:06:10;;;;;;;1.20;1.17;;;21.70;98.00;;;;;;5091617;28;20488;-68
2021/07/08 10:08:38;;;;;;;1.40;1.37;;;21.80;98.00;;;;;;5091785;28;20541;-68
2021/07/08 10:11:06;;;;;;;1.70;1.43;;;22.00;98.00;;;;;;5091685;28;20867;-68
2021/07/08 10:13:33;;;;;;;1.40;1.30;;;21.90;98.00;;;;;;5091490;28;20525;-69
2021/07/08 10:16:05;;;;;;;1.30;1.10;;;22.10;98.00;;;;;;5091608;28;20539;-70
2021/07/08 10:18:37;;;;;;;1.20;1.20;;;22.30;98.00;;;;;;5090417;28;20467;-69
2021/07/08 10:21:05;;;;;;;1.63;1.37;;;22.50;98.00;;;;;;5091415;28;20883;-68
2021/07/08 10:23:35;;;;;;;1.40;1.30;;;22.50;98.00;;;;;;5091373;28;20459;-69
2021/07/08 10:26:03;;;;;;;1.20;1.10;;;22.60;98.00;;;;;;5091578;28;20548;-69
2021/07/08 10:28:32;;;;;;;1.37;1.17;;;22.60;98.00;;;;;;5091530;28;20448;-69
2021/07/08 10:31:00;;;;;;;1.60;1.40;;;22.50;98.00;;;;;;5091493;28;20467;-68
2021/07/08 10:33:28;;;;;;;1.80;1.50;;;22.50;98.00;;;;;;5090223;28;20452;-68
2021/07/08 10:35:56;;;;;;;1.30;1.20;;;22.50;98.00;;;;;;5091387;28;20509;-68
2021/07/08 10:38:35;;;;;;;1.30;1.27;;;22.50;98.00;;;;;;5091436;28;20464;-70
2021/07/08 10:41:24;;;;;;;2.30;1.30;;;22.40;98.00;;;;;;5091368;28;20546;-69
2021/07/08 10:43:52;;;;;;;2.03;1.33;;;22.40;98.00;;;;;;5091470;28;20464;-68
2021/07/08 10:46:19;;;;;;;1.37;1.30;;;22.20;98.00;;;;;;5091293;28;20492;-68
2021/07/08 10:48:47;;;;;;;1.40;1.40;;;22.10;98.00;;;;;;5091540;28;20460;-70
2021/07/08 10:51:26;;;;;;;1.43;1.20;;;22.00;98.00;;;;;;5091453;28;20467;-68
2021/07/08 10:53:54;;;;;;;1.37;1.17;;;22.00;98.00;;;;;;5091336;28;20456;-69
2021/07/08 10:56:32;;;;;;;1.63;1.47;;;22.00;98.00;;;;;;5091400;28;20534;-69
2021/07/08 10:58:59;;;;;;;4.20;2.40;;;22.10;98.00;;;;;;5091470;28;20452;-68
2021/07/08 11:01:44;;;;;;;1.80;1.50;;;22.10;98.00;;;;;;5073369;28;20448;-69
2021/07/08 11:04:13;;;;;;;1.30;1.30;;;22.10;98.00;;;;;;5093885;28;20462;-68
2021/07/08 11:06:42;;;;;;;1.30;1.20;;;22.10;98.00;;;;;;5094726;28;20484;-70
2021/07/08 11:09:21;;;;;;;1.50;1.10;;;22.20;98.00;;;;;;5095056;28;20459;-70
2021/07/08 11:12:06;;;;;;;1.63;1.30;;;22.30;98.00;;;;;;5094908;28;20467;-69
2021/07/08 11:14:39;;;;;;;1.97;1.23;;;22.30;98.00;;;;;;5094806;28;20456;-68
2021/07/08 11:17:17;;;;;;;2.70;1.20;;;22.20;98.00;;;;;;5094731;28;20448;-66
2021/07/08 11:19:49;;;;;;;1.30;1.20;;;22.00;98.00;;;;;;5094591;28;20509;-67
2021/07/08 11:22:41;;;;;;;1.23;1.00;;;22.00;98.00;;;;;;5094649;28;20528;-68
2021/07/08 11:25:12;;;;;;;1.30;1.20;;;22.10;98.00;;;;;;5079297;28;20459;-67
2021/07/08 11:27:44;;;;;;;1.20;1.20;;;22.10;98.00;;;;;;5094295;28;20481;-67
2021/07/08 11:30:32;;;;;;;1.90;1.43;;;22.20;98.00;;;;;;5094360;28;20455;-67
2021/07/08 11:33:10;;;;;;;2.23;1.40;;;22.10;98.00;;;;;;5089055;28;20460;-68
2021/07/08 11:35:39;;;;;;;1.93;1.50;;;22.10;98.00;;;;;;5094215;28;20482;-68
2021/07/08 11:38:12;;;;;;;1.47;1.30;;;22.00;98.00;;;;;;5093460;28;20542;-68
2021/07/08 11:40:42;;;;;;;1.20;1.10;;;21.90;98.00;;;;;;5094081;28;20455;-67
2021/07/08 11:43:27;;;;;;;1.30;1.20;;;22.00;98.00;;;;;;5094182;28;20456;-67
2021/07/08 11:45:57;;;;;;;1.30;1.20;;;22.10;98.00;;;;;;5093907;28;20492;-68
2021/07/08 11:48:27;;;;;;;1.20;1.10;;;22.00;98.00;;;;;;5093907;28;20524;-67
2021/07/08 11:50:55;;;;;;;1.67;1.30;;;22.10;98.00;;;;;;5093816;28;20514;-67
2021/07/08 11:53:23;;;;;;;1.77;1.30;;;22.20;98.00;;;;;;5093980;28;20456;-67
2021/07/08 11:55:53;;;;;;;1.20;1.10;;;22.10;98.00;;;;;;5094087;28;20521;-68
2021/07/08 11:58:24;;;;;;;1.50;1.43;;;22.10;98.00;;;;;;5093822;28;20533;-67
2021/07/08 12:00:54;;;;;;;1.50;1.40;;;22.10;98.00;;;;;;5093542;28;20488;-68
2021/07/08 12:03:29;;;;;;;1.20;1.10;;;22.10;98.00;;;;;;5093788;28;20513;-67
2021/07/08 12:06:03;;;;;;;1.30;1.20;;;22.20;98.00;;;;;;5093799;28;20486;-69
2021/07/08 12:08:32;;;;;;;1.40;1.20;;;22.20;98.00;;;;;;5093697;28;20448;-68
2021/07/08 12:11:12;;;;;;;1.30;1.10;;;22.30;98.00;;;;;;5093765;28;20452;-68
2021/07/08 12:13:58;;;;;;;1.20;1.03;;;22.30;98.00;;;;;;5093653;28;20495;-67
2021/07/08 12:16:31;;;;;;;1.40;1.30;;;22.40;98.00;;;;;;5092818;28;20464;-68
2021/07/08 12:19:00;;;;;;;1.20;1.10;;;22.30;98.00;;;;;;5093571;28;20467;-67
2021/07/08 12:21:30;;;;;;;1.50;1.30;;;22.20;98.00;;;;;;5093103;28;20521;-69
2021/07/08 12:24:05;;;;;;;1.30;1.10;;;22.10;98.00;;;;;;5093393;28;20510;-69
2021/07/08 12:26:35;;;;;;;1.40;1.20;;;22.20;98.00;;;;;;5093310;28;20483;-66
2021/07/08 12:29:20;;;;;;;1.57;1.40;;;22.20;98.00;;;;;;5093513;28;20460;-69
2021/07/08 12:31:51;;;;;;;1.23;1.23;;;22.10;98.00;;;;;;5093283;28;20821;-68
2021/07/08 12:34:19;;;;;;;1.90;1.40;;;22.20;98.00;;;;;;5093959;28;20456;-69
2021/07/08 12:36:48;;;;;;;1.57;1.30;;;22.10;98.00;;;;;;5093279;28;20543;-69
2021/07/08 12:39:27;;;;;;;1.40;1.30;;;22.00;98.00;;;;;;5093223;28;20456;-69
2021/07/08 12:41:54;;;;;;;1.20;1.10;;;22.00;98.00;;;;;;5093121;28;20470;-69
2021/07/08 12:44:21;;;;;;;1.20;1.20;;;22.10;98.00;;;;;;5092979;28;20509;-68
2021/07/08 12:46:54;;;;;;;1.50;1.20;;;22.20;98.00;;;;;;5092637;28;20537;-70
2021/07/08 12:49:21;;;;;;;1.80;1.10;;;22.10;98.00;;;;;;5092795;28;20592;-68
2021/07/08 12:51:49;;;;;;;1.30;1.20;;;22.10;98.00;;;;;;5092225;28;20512;-68
2021/07/08 12:54:19;;;;;;;1.50;1.50;;;22.30;98.00;;;;;;5091829;28;20464;-69
2021/07/08 12:57:09;;;;;;;1.30;1.20;;;22.40;98.00;;;;;;5091871;28;20520;-68
2021/07/08 12:59:37;;;;;;;1.20;1.20;;;22.50;98.00;;;;;;5091937;28;20501;-67
2021/07/08 13:02:05;;;;;;;1.20;1.10;;;22.40;98.00;;;;;;5091794;28;20509;-67